Time;durP1;ratioP1;P1;durP2;ratioP2;P2;SDS_P1;SDS_P2;PMS_P1;PMS_P2;Temp;Humidity;BMP_temperature;BMP_pressure;BME280_temperature;BME280_humidity;BME280_pressure;Samples;Min_cycle;Max_cycle;Signal;HPM_P1;HPM_P2
2023/10/25 00:01:59;;;;;;;4.90;2.30;;;1.90;99.90;;;;;;2007465;70;25200;-89
2023/10/25 00:04:54;;;;;;;4.67;2.03;;;1.90;99.90;;;;;;1991484;72;25487;-88
2023/10/25 00:07:42;;;;;;;2.30;1.40;;;1.80;99.90;;;;;;1984880;70;25694;-89
2023/10/25 00:10:31;;;;;;;3.33;1.93;;;1.80;99.90;;;;;;1996427;70;25205;-88
2023/10/25 00:13:20;;;;;;;3.80;1.97;;;1.80;99.90;;;;;;1990106;70;25707;-88
2023/10/25 00:16:13;;;;;;;2.03;1.50;;;1.70;99.90;;;;;;1977631;70;25627;-89
2023/10/25 00:19:02;;;;;;;6.57;2.73;;;1.60;99.90;;;;;;1987198;72;25268;-88
2023/10/25 00:21:50;;;;;;;5.03;2.73;;;1.60;99.90;;;;;;1993529;72;25248;-89
2023/10/25 00:24:39;;;;;;;7.37;3.00;;;1.50;99.90;;;;;;1992038;70;25659;-89
2023/10/25 00:27:27;;;;;;;6.73;1.73;;;1.50;99.90;;;;;;1970653;70;25314;-88
2023/10/25 00:33:05;;;;;;;5.10;2.13;;;1.50;99.90;;;;;;1941495;72;27092;-89
2023/10/25 00:35:54;;;;;;;3.90;2.23;;;1.50;99.90;;;;;;1899414;73;25294;-89
2023/10/25 00:38:42;;;;;;;5.20;2.67;;;1.60;99.90;;;;;;1909056;73;25228;-89
2023/10/25 00:41:30;;;;;;;2.00;1.20;;;1.60;99.90;;;;;;1913568;73;25236;-89
2023/10/25 00:44:19;;;;;;;6.50;2.37;;;1.60;99.90;;;;;;1915256;73;25722;-89
2023/10/25 00:47:08;;;;;;;5.60;2.57;;;1.70;99.90;;;;;;1929073;73;25281;-89
2023/10/25 00:49:58;;;;;;;4.80;2.43;;;1.60;99.90;;;;;;1915209;74;25281;-89
2023/10/25 00:52:47;;;;;;;5.67;2.40;;;1.60;99.90;;;;;;1925697;73;25751;-89
2023/10/25 00:55:35;;;;;;;7.23;3.07;;;1.70;99.90;;;;;;1911646;74;25184;-89
2023/10/25 00:58:35;;;;;;;7.43;3.33;;;1.60;99.90;;;;;;1911425;73;25314;-88
2023/10/25 01:01:26;;;;;;;2.83;1.70;;;1.60;99.90;;;;;;1911563;74;26174;-88
2023/10/25 01:04:15;;;;;;;6.43;3.00;;;1.70;99.90;;;;;;1930296;74;25238;-89
2023/10/25 01:07:05;;;;;;;4.93;2.37;;;1.70;99.90;;;;;;1924825;73;25759;-88
2023/10/25 01:09:53;;;;;;;3.70;2.50;;;1.70;99.90;;;;;;1923408;73;25318;-88
2023/10/25 01:26:41;;;;;;;5.30;3.00;;;1.70;99.90;;;;;;1923373;73;26386;-88
2023/10/25 01:43:43;;;;;;;10.50;4.30;;;1.80;99.90;;;;;;1831929;77;27123;-88
2023/10/25 01:46:32;;;;;;;3.33;2.13;;;1.80;99.90;;;;;;1789384;79;25244;-88
2023/10/25 02:02:48;;;;;;;5.80;2.60;;;1.80;99.90;;;;;;2000809;69;27109;-89
2023/10/25 02:21:15;;;;;;;11.13;4.87;;;1.80;99.90;;;;;;1886400;75;27178;-89
2023/10/25 02:26:51;;;;;;;9.20;3.23;;;1.70;99.90;;;;;;1944909;72;27369;-88
2023/10/25 02:29:39;;;;;;;13.13;4.83;;;1.70;99.90;;;;;;1934923;73;25272;-90
2023/10/25 02:32:29;;;;;;;11.00;4.60;;;1.70;99.90;;;;;;1947517;72;25222;-88
2023/10/25 02:35:19;;;;;;;11.03;3.57;;;1.70;99.90;;;;;;1938446;73;25207;-88
2023/10/25 02:38:08;;;;;;;8.97;3.97;;;1.70;99.90;;;;;;1922637;73;25201;-89
2023/10/25 02:40:56;;;;;;;10.97;4.03;;;1.70;99.90;;;;;;1926696;72;25369;-89
2023/10/25 02:43:45;;;;;;;10.00;4.60;;;1.70;99.90;;;;;;1922153;73;26003;-89
2023/10/25 02:46:34;;;;;;;7.37;3.57;;;1.60;99.90;;;;;;1926020;73;25731;-89
2023/10/25 02:49:22;;;;;;;7.43;3.87;;;1.60;99.90;;;;;;1923974;73;25263;-89
2023/10/25 02:52:10;;;;;;;7.37;3.27;;;1.60;99.90;;;;;;1922895;73;25158;-88
2023/10/25 02:54:59;;;;;;;8.20;3.13;;;1.60;99.90;;;;;;1929307;73;25741;-88
2023/10/25 02:57:47;;;;;;;6.97;3.40;;;1.50;99.90;;;;;;1915501;73;25266;-89
2023/10/25 03:03:19;;;;;;;7.70;3.17;;;1.60;99.90;;;;;;1961215;70;27116;-89
2023/10/25 03:06:08;;;;;;;9.67;3.93;;;1.60;99.90;;;;;;1915022;73;25809;-89
2023/10/25 03:08:57;;;;;;;7.60;4.10;;;1.50;99.90;;;;;;1920890;73;25562;-89
2023/10/25 03:11:46;;;;;;;5.10;2.47;;;1.50;99.90;;;;;;1893229;73;25637;-88
2023/10/25 03:14:35;;;;;;;8.50;3.27;;;1.50;99.90;;;;;;1892588;73;25857;-89
2023/10/25 03:17:24;;;;;;;4.27;2.30;;;1.50;99.90;;;;;;1896090;73;25252;-89
2023/10/25 03:20:13;;;;;;;3.67;2.13;;;1.50;99.90;;;;;;1911704;73;25656;-88
2023/10/25 03:23:02;;;;;;;5.47;2.63;;;1.40;99.90;;;;;;1901355;73;25647;-89
2023/10/25 03:25:51;;;;;;;4.30;1.93;;;1.40;99.90;;;;;;1921701;73;25236;-89
2023/10/25 03:28:40;;;;;;;5.40;2.93;;;1.30;99.90;;;;;;1932892;73;25627;-88
2023/10/25 03:31:29;;;;;;;3.73;2.00;;;1.40;99.90;;;;;;1906514;73;25213;-89
2023/10/25 03:34:18;;;;;;;2.97;1.50;;;1.40;99.90;;;;;;1912809;73;25249;-89
2023/10/25 03:37:07;;;;;;;10.57;3.63;;;1.40;99.90;;;;;;1899770;73;25249;-89
2023/10/25 03:39:55;;;;;;;6.83;3.80;;;1.40;99.90;;;;;;1921626;73;25205;-89
2023/10/25 03:42:44;;;;;;;7.17;2.83;;;1.40;99.90;;;;;;1847987;76;25401;-88
2023/10/25 03:45:34;;;;;;;8.47;3.93;;;1.50;99.90;;;;;;1929843;73;25173;-89
2023/10/25 03:48:23;;;;;;;7.57;3.00;;;1.50;99.90;;;;;;1859467;76;25272;-89
2023/10/25 03:51:11;;;;;;;6.57;3.00;;;1.50;99.90;;;;;;1930098;72;25194;-89
2023/10/25 03:53:59;;;;;;;7.73;2.93;;;1.50;99.90;;;;;;1889168;74;25301;-88
2023/10/25 03:56:48;;;;;;;5.07;2.80;;;1.40;99.90;;;;;;1938685;72;25226;-89
2023/10/25 03:59:37;;;;;;;4.70;2.40;;;1.40;99.90;;;;;;1863274;76;25342;-89
2023/10/25 04:02:28;;;;;;;7.33;3.33;;;1.50;99.90;;;;;;1946600;72;25285;-88
2023/10/25 04:05:17;;;;;;;7.93;3.10;;;1.50;99.90;;;;;;1914081;73;25612;-88
2023/10/25 04:08:06;;;;;;;7.27;3.10;;;1.50;99.90;;;;;;1908261;74;25281;-89
2023/10/25 04:10:56;;;;;;;5.57;2.63;;;1.50;99.90;;;;;;1927871;72;25762;-89
2023/10/25 04:13:45;;;;;;;6.00;2.93;;;1.50;99.90;;;;;;1921509;73;25206;-89
2023/10/25 04:19:25;;;;;;;3.93;2.60;;;1.50;99.90;;;;;;1958219;72;27051;-89
2023/10/25 04:22:14;;;;;;;2.83;1.67;;;1.50;99.90;;;;;;1933695;73;25869;-89
2023/10/25 04:38:11;;;;;;;3.83;2.03;;;1.50;99.90;;;;;;1858138;76;27636;-89
2023/10/25 04:43:41;;;;;;;5.57;2.67;;;1.40;99.90;;;;;;1939380;72;26946;-89
2023/10/25 04:46:30;;;;;;;4.77;2.37;;;1.40;99.90;;;;;;1907467;73;25308;-89
2023/10/25 04:49:19;;;;;;;3.90;2.33;;;1.50;99.90;;;;;;1902493;74;25274;-89
2023/10/25 04:55:29;;;;;;;5.40;2.57;;;1.50;99.90;;;;;;1987105;71;26837;-89
2023/10/25 05:02:38;;;;;;;10.57;3.40;;;1.50;99.90;;;;;;1978731;71;26364;-89
2023/10/25 05:05:26;;;;;;;2.47;1.67;;;1.40;99.90;;;;;;2020498;69;25314;-89
2023/10/25 05:08:17;;;;;;;3.67;2.13;;;1.40;99.90;;;;;;2017094;69;25146;-89
2023/10/25 05:11:07;;;;;;;6.40;3.40;;;1.50;99.90;;;;;;2000636;69;25619;-89
2023/10/25 05:13:56;;;;;;;6.00;2.67;;;1.40;99.90;;;;;;2028027;69;25219;-89
2023/10/25 05:16:46;;;;;;;5.47;2.67;;;1.40;99.90;;;;;;2005447;70;25279;-89
2023/10/25 05:19:36;;;;;;;3.70;1.97;;;1.30;99.90;;;;;;2009815;69;25636;-89
2023/10/25 05:22:28;;;;;;;4.63;2.27;;;1.30;99.90;;;;;;2000309;69;25347;-88
2023/10/25 05:25:18;;;;;;;5.60;2.53;;;1.30;99.90;;;;;;2015289;69;25655;-88
2023/10/25 05:28:09;;;;;;;4.77;2.10;;;1.20;99.90;;;;;;2016429;69;25195;-88
2023/10/25 05:44:37;;;;;;;5.93;3.13;;;1.30;99.90;;;;;;1936882;72;26371;-88
2023/10/25 05:51:24;;;;;;;10.13;3.10;;;1.40;99.90;;;;;;1984461;71;26250;-88
2023/10/25 05:54:14;;;;;;;4.67;2.50;;;1.40;99.90;;;;;;1996397;70;25273;-88
2023/10/25 05:57:08;;;;;;;5.43;2.40;;;1.30;99.90;;;;;;2010620;70;25267;-87
2023/10/25 05:59:58;;;;;;;3.60;2.17;;;1.30;99.90;;;;;;2004814;70;25164;-88
2023/10/25 06:02:50;;;;;;;2.73;2.00;;;1.30;99.90;;;;;;2003374;70;25578;-87
2023/10/25 06:05:43;;;;;;;5.23;2.43;;;1.30;99.90;;;;;;2002944;70;25262;-88
2023/10/25 06:08:33;;;;;;;3.40;1.87;;;1.40;99.90;;;;;;2003794;71;25238;-87
2023/10/25 06:14:35;;;;;;;5.03;2.00;;;1.30;99.90;;;;;;1973544;71;27130;-88
2023/10/25 06:17:24;;;;;;;3.00;2.00;;;1.40;99.90;;;;;;1989476;70;25227;-88
2023/10/25 06:20:19;;;;;;;3.90;2.03;;;1.40;99.90;;;;;;1989450;70;25256;-88
2023/10/25 06:26:54;;;;;;;7.80;3.67;;;1.40;99.90;;;;;;1956710;71;26227;-89
2023/10/25 06:29:42;;;;;;;5.50;3.00;;;1.40;99.90;;;;;;1992218;71;25716;-89
2023/10/25 06:32:31;;;;;;;8.50;2.63;;;1.40;99.90;;;;;;1980058;70;25243;-89
2023/10/25 06:35:19;;;;;;;4.17;2.57;;;1.40;99.90;;;;;;1992015;70;25225;-89
2023/10/25 06:38:10;;;;;;;5.20;2.30;;;1.30;99.90;;;;;;1999731;70;25142;-89
2023/10/25 06:40:59;;;;;;;5.23;2.23;;;1.30;99.90;;;;;;1985704;71;25232;-89
2023/10/25 06:47:15;;;;;;;4.80;2.57;;;1.30;99.90;;;;;;1993281;71;26259;-89
2023/10/25 06:50:05;;;;;;;4.43;2.20;;;1.30;99.90;;;;;;2034675;69;25213;-89
2023/10/25 06:52:55;;;;;;;5.70;2.50;;;1.40;99.90;;;;;;2016164;69;25738;-89
2023/10/25 06:55:44;;;;;;;5.03;2.27;;;1.40;99.90;;;;;;2008538;69;25179;-89
2023/10/25 07:13:51;;;;;;;5.97;2.13;;;1.50;99.90;;;;;;1942512;72;27041;-89
2023/10/25 07:16:39;;;;;;;3.23;2.10;;;1.70;99.90;;;;;;1899551;73;25261;-89
2023/10/25 07:59:45;;;;;;;3.33;2.20;;;1.80;99.90;;;;;;1917769;73;27764;-88
2023/10/25 08:19:34;;;;;;;3.33;1.97;;;2.10;99.90;;;;;;1949126;72;26960;-90
2023/10/25 08:25:15;;;;;;;2.10;1.57;;;2.00;99.90;;;;;;1951296;72;27059;-89
2023/10/25 08:28:04;;;;;;;1.47;1.23;;;2.00;99.90;;;;;;1952765;72;25279;-90
2023/10/25 08:30:54;;;;;;;3.67;2.20;;;2.00;99.90;;;;;;1961993;72;25193;-90
2023/10/25 08:37:30;;;;;;;3.27;2.10;;;2.00;99.90;;;;;;1917013;73;25774;-90
2023/10/25 08:50:49;;;;;;;3.93;2.30;;;2.10;99.90;;;;;;1982044;71;26934;-89
2023/10/25 08:53:39;;;;;;;3.17;2.10;;;2.10;99.90;;;;;;2018427;69;25177;-88
2023/10/25 08:56:27;;;;;;;2.70;1.80;;;2.10;99.90;;;;;;2024081;69;25261;-89
2023/10/25 08:59:16;;;;;;;3.60;1.97;;;2.10;99.90;;;;;;2023104;69;25334;-89
2023/10/25 09:02:05;;;;;;;2.33;1.70;;;2.10;99.90;;;;;;2022805;69;25297;-89
2023/10/25 09:05:02;;;;;;;5.03;1.90;;;2.20;99.90;;;;;;2028528;69;25276;-89
2023/10/25 09:07:50;;;;;;;2.17;1.50;;;2.20;99.90;;;;;;1986534;70;25194;-89
2023/10/25 09:10:39;;;;;;;2.00;1.80;;;2.20;99.90;;;;;;2013036;69;25716;-89
2023/10/25 09:13:28;;;;;;;4.03;2.33;;;2.30;99.90;;;;;;2023922;70;25124;-89
2023/10/25 09:16:17;;;;;;;2.57;1.80;;;2.30;99.90;;;;;;2025782;69;25161;-89
2023/10/25 09:19:06;;;;;;;4.43;2.30;;;2.30;99.90;;;;;;2030701;69;25686;-88
2023/10/25 09:21:55;;;;;;;6.87;1.80;;;2.30;99.90;;;;;;2012289;70;25240;-89
2023/10/25 09:24:52;;;;;;;1.57;1.43;;;2.40;99.90;;;;;;2027223;69;25338;-89
2023/10/25 09:27:43;;;;;;;2.80;1.50;;;2.40;99.90;;;;;;2028910;69;25286;-88
2023/10/25 09:30:33;;;;;;;3.40;2.03;;;2.40;99.90;;;;;;2020034;69;25230;-89
2023/10/25 09:33:23;;;;;;;3.17;1.90;;;2.50;99.90;;;;;;2021711;69;25241;-88
2023/10/25 09:36:13;;;;;;;3.40;1.83;;;2.60;99.90;;;;;;2030232;69;25197;-89
2023/10/25 09:39:06;;;;;;;2.43;1.30;;;2.70;99.90;;;;;;2036270;69;25178;-87
2023/10/25 09:41:55;;;;;;;1.67;1.57;;;2.60;99.90;;;;;;2022972;69;25317;-90
2023/10/25 09:44:50;;;;;;;1.83;1.27;;;2.60;99.90;;;;;;1980183;70;25206;-87
2023/10/25 09:50:31;;;;;;;2.33;1.67;;;2.50;99.90;;;;;;1951308;72;26982;-88
2023/10/25 09:53:23;;;;;;;1.77;1.33;;;2.60;99.90;;;;;;1932267;73;25287;-89
2023/10/25 09:56:12;;;;;;;3.30;2.03;;;2.70;99.90;;;;;;1925732;73;25272;-89
2023/10/25 09:59:02;;;;;;;3.87;1.70;;;2.80;99.90;;;;;;1926631;73;25636;-88
2023/10/25 10:01:51;;;;;;;3.70;2.10;;;2.80;99.90;;;;;;1932010;73;25162;-89
2023/10/25 10:04:48;;;;;;;2.13;1.47;;;2.70;99.90;;;;;;1925009;73;25355;-88
2023/10/25 10:07:43;;;;;;;1.60;1.50;;;2.70;99.90;;;;;;1926161;73;25244;-90
2023/10/25 10:13:29;;;;;;;4.77;2.07;;;2.80;99.90;;;;;;1951752;72;26973;-88
2023/10/25 10:16:19;;;;;;;3.07;1.90;;;2.90;99.90;;;;;;1945901;73;25162;-88
2023/10/25 10:19:12;;;;;;;3.73;2.23;;;2.80;99.90;;;;;;1931728;72;25281;-89
2023/10/25 10:22:08;;;;;;;3.30;2.33;;;2.80;99.90;;;;;;1899919;75;25256;-88
2023/10/25 10:24:58;;;;;;;3.10;2.00;;;2.80;99.90;;;;;;1936311;73;25242;-88
2023/10/25 10:28:03;;;;;;;2.37;2.03;;;2.90;99.90;;;;;;1900072;73;25728;-89
2023/10/25 10:30:54;;;;;;;2.27;1.60;;;3.00;99.90;;;;;;1851843;75;25680;-89
2023/10/25 10:48:51;;;;;;;3.77;2.00;;;3.00;99.90;;;;;;1930597;72;27039;-87
2023/10/25 11:20:30;;;;;;;1.47;1.23;;;3.30;99.90;;;;;;1897555;74;27301;-88
2023/10/25 11:26:12;;;;;;;3.03;1.87;;;3.30;99.90;;;;;;1956312;72;26961;-88
2023/10/25 11:29:03;;;;;;;2.50;1.87;;;3.30;99.90;;;;;;1920396;72;25289;-88
2023/10/25 11:31:55;;;;;;;3.43;1.90;;;3.30;99.90;;;;;;1922396;72;25157;-88
2023/10/25 11:34:49;;;;;;;2.37;1.37;;;3.30;99.90;;;;;;1925978;73;25214;-88
2023/10/25 11:37:45;;;;;;;1.57;1.37;;;3.40;99.90;;;;;;1922394;72;25908;-88
2023/10/25 11:40:41;;;;;;;6.27;2.30;;;3.30;99.90;;;;;;1916964;73;25214;-88
2023/10/25 11:43:30;;;;;;;4.80;2.80;;;3.40;99.90;;;;;;1918394;73;25243;-88
2023/10/25 11:46:24;;;;;;;3.20;2.37;;;3.50;99.90;;;;;;1912553;75;25237;-88
2023/10/25 11:49:11;;;;;;;1.57;1.40;;;3.60;99.90;;;;;;1902417;75;25235;-88
2023/10/25 11:52:03;;;;;;;2.03;1.73;;;3.60;99.90;;;;;;1906950;73;25836;-88
2023/10/25 11:54:55;;;;;;;2.90;2.13;;;3.50;99.90;;;;;;1906784;74;25229;-88
2023/10/25 11:57:47;;;;;;;3.23;1.83;;;3.50;99.90;;;;;;1906647;74;25324;-88
2023/10/25 12:00:36;;;;;;;4.37;3.20;;;3.40;99.90;;;;;;1891140;74;25239;-88
2023/10/25 12:03:27;;;;;;;3.07;2.03;;;3.50;99.90;;;;;;1877019;75;25672;-88
2023/10/25 12:06:17;;;;;;;3.87;2.50;;;3.50;99.90;;;;;;1881539;73;25258;-88
2023/10/25 12:22:45;;;;;;;3.90;2.70;;;3.60;99.90;;;;;;1968834;71;27560;-88
2023/10/25 12:38:51;;;;;;;4.57;2.57;;;3.50;99.90;;;;;;1961883;72;28191;-87
2023/10/25 12:44:54;;;;;;;3.27;2.17;;;3.60;99.90;;;;;;1978355;71;26790;-89
2023/10/25 12:47:43;;;;;;;6.33;3.50;;;3.60;99.90;;;;;;2021230;70;25249;-88
2023/10/25 12:50:32;;;;;;;2.53;1.80;;;3.60;99.90;;;;;;2017675;70;25764;-89
2023/10/25 12:53:20;;;;;;;2.33;1.70;;;3.60;99.90;;;;;;2016227;69;25221;-88
2023/10/25 12:56:09;;;;;;;3.10;1.90;;;3.50;99.90;;;;;;2014368;69;25203;-88
2023/10/25 12:58:57;;;;;;;7.47;2.50;;;3.50;99.90;;;;;;2011884;70;25749;-88
2023/10/25 13:01:50;;;;;;;4.43;2.40;;;3.50;99.90;;;;;;1973021;71;25306;-89
2023/10/25 13:04:36;;;;;;;3.80;2.30;;;3.50;99.90;;;;;;1952121;72;25261;-89
2023/10/25 13:07:26;;;;;;;4.40;2.60;;;3.60;99.90;;;;;;1982977;71;25199;-88
2023/10/25 13:10:15;;;;;;;1.93;1.20;;;3.50;99.90;;;;;;1979239;72;25198;-88
2023/10/25 13:13:05;;;;;;;1.50;1.40;;;3.50;99.90;;;;;;1952069;72;25317;-88
2023/10/25 13:15:54;;;;;;;3.07;2.17;;;3.50;99.90;;;;;;1963096;72;25235;-88
2023/10/25 13:18:42;;;;;;;8.07;1.93;;;3.50;99.90;;;;;;1971871;72;25600;-89
2023/10/25 13:21:31;;;;;;;2.13;1.33;;;3.50;99.90;;;;;;1965638;72;25222;-88
2023/10/25 13:24:20;;;;;;;3.30;2.07;;;3.50;99.90;;;;;;1954481;72;25250;-89
2023/10/25 13:27:09;;;;;;;3.17;2.20;;;3.50;99.90;;;;;;1967262;71;25855;-88
2023/10/25 13:29:58;;;;;;;3.73;2.23;;;3.60;99.90;;;;;;1980501;71;25121;-89
2023/10/25 13:32:46;;;;;;;2.17;1.97;;;3.60;99.90;;;;;;1968068;72;25250;-88
2023/10/25 13:38:19;;;;;;;4.70;2.23;;;3.50;99.90;;;;;;1942003;72;27457;-89
2023/10/25 13:41:09;;;;;;;4.33;2.07;;;3.40;99.90;;;;;;1925713;73;25208;-89
2023/10/25 13:43:57;;;;;;;2.90;1.70;;;3.50;99.90;;;;;;1892082;74;25629;-88
2023/10/25 13:46:46;;;;;;;5.67;2.30;;;3.50;99.90;;;;;;1895547;74;25297;-88
2023/10/25 13:49:34;;;;;;;6.57;2.40;;;3.40;99.90;;;;;;1911286;73;25212;-89
2023/10/25 13:52:23;;;;;;;2.80;2.07;;;3.50;99.90;;;;;;1911931;74;25703;-88
2023/10/25 13:55:11;;;;;;;2.47;1.60;;;3.50;99.90;;;;;;1907828;73;25281;-88
2023/10/25 13:58:00;;;;;;;3.47;2.00;;;3.40;99.90;;;;;;1904373;73;25291;-88
2023/10/25 14:00:50;;;;;;;1.23;1.03;;;3.40;99.90;;;;;;1908427;73;25253;-88
2023/10/25 14:03:40;;;;;;;3.47;2.07;;;3.40;99.90;;;;;;1915133;73;25519;-88
2023/10/25 14:06:29;;;;;;;1.50;1.23;;;3.40;99.90;;;;;;1896952;73;25826;-88
2023/10/25 14:09:17;;;;;;;2.03;1.20;;;3.40;99.90;;;;;;1906386;73;25186;-88
2023/10/25 14:14:49;;;;;;;1.87;1.43;;;3.30;99.90;;;;;;1922299;72;27832;-88
2023/10/25 14:34:41;;;;;;;5.40;1.80;;;3.40;99.90;;;;;;1957247;71;27415;-88
2023/10/25 14:37:31;;;;;;;3.43;2.20;;;3.40;99.90;;;;;;1953632;72;25233;-88
2023/10/25 14:40:21;;;;;;;3.77;2.07;;;3.40;99.90;;;;;;1927558;73;25233;-88
2023/10/25 14:45:53;;;;;;;3.63;2.07;;;3.30;99.90;;;;;;1948663;72;27097;-88
2023/10/25 14:48:42;;;;;;;2.10;1.63;;;3.30;99.90;;;;;;1929892;73;25224;-88
2023/10/25 14:51:31;;;;;;;3.03;2.07;;;3.40;99.90;;;;;;1935404;73;25166;-89
2023/10/25 14:54:20;;;;;;;1.43;1.33;;;3.30;99.90;;;;;;1930635;73;25279;-89
2023/10/25 14:57:10;;;;;;;1.90;1.67;;;3.30;99.90;;;;;;1935041;73;25286;-89
2023/10/25 15:00:05;;;;;;;4.23;2.40;;;3.30;99.90;;;;;;1930378;73;25742;-89
2023/10/25 15:02:49;;;;;;;4.70;2.20;;;3.30;99.90;;;;;;1939494;72;25669;-89
2023/10/25 15:05:41;;;;;;;4.10;1.53;;;3.30;99.90;;;;;;1937296;73;25334;-89
2023/10/25 15:08:28;;;;;;;4.20;2.00;;;3.30;99.90;;;;;;1940658;73;25252;-89
2023/10/25 15:11:17;;;;;;;3.53;1.93;;;3.20;99.90;;;;;;1933495;73;25205;-89
2023/10/25 15:14:06;;;;;;;11.73;4.47;;;3.20;99.90;;;;;;1941979;73;25272;-89
2023/10/25 15:16:55;;;;;;;3.73;1.93;;;3.20;99.90;;;;;;1938109;73;25210;-89
2023/10/25 15:19:45;;;;;;;2.53;1.67;;;3.20;99.90;;;;;;1935213;73;25329;-89
2023/10/25 15:22:33;;;;;;;2.83;1.90;;;3.30;99.90;;;;;;1931065;73;25190;-90
2023/10/25 15:25:25;;;;;;;3.93;2.20;;;3.20;99.90;;;;;;1924487;73;25747;-88
2023/10/25 15:28:13;;;;;;;3.73;2.20;;;3.20;99.90;;;;;;1940164;73;25308;-87
2023/10/25 15:31:08;;;;;;;2.80;1.93;;;3.20;99.90;;;;;;1932427;73;25263;-87
2023/10/25 15:33:57;;;;;;;3.37;2.10;;;3.30;99.90;;;;;;1888338;75;25226;-87
2023/10/25 15:36:45;;;;;;;4.60;2.23;;;3.20;99.90;;;;;;1895957;74;25786;-88
2023/10/25 15:39:36;;;;;;;4.13;2.30;;;3.20;99.90;;;;;;1885393;74;25209;-88
2023/10/25 15:57:28;;;;;;;10.40;4.27;;;3.10;99.90;;;;;;1973398;71;26845;-89
2023/10/25 16:00:18;;;;;;;4.53;2.90;;;3.30;99.90;;;;;;2014557;69;25307;-89
2023/10/25 16:03:06;;;;;;;4.23;2.33;;;3.30;99.90;;;;;;2015662;69;25224;-91
2023/10/25 16:05:55;;;;;;;2.30;1.77;;;3.20;99.90;;;;;;2016927;70;25619;-91
2023/10/25 16:08:44;;;;;;;3.03;1.47;;;3.20;99.90;;;;;;2002184;71;25283;-91
2023/10/25 16:11:35;;;;;;;4.07;2.10;;;3.20;99.90;;;;;;2003863;71;25253;-90
2023/10/25 16:14:24;;;;;;;3.70;2.37;;;3.10;99.90;;;;;;2007923;70;25305;-90
2023/10/25 16:17:13;;;;;;;4.93;2.30;;;3.10;99.90;;;;;;1999515;70;25228;-90
2023/10/25 16:20:02;;;;;;;14.80;5.83;;;3.10;99.90;;;;;;2016108;70;25692;-90
2023/10/25 16:22:51;;;;;;;3.47;2.40;;;3.10;99.90;;;;;;2010504;70;25181;-90
2023/10/25 16:25:40;;;;;;;6.27;2.77;;;3.10;99.90;;;;;;2026224;69;25267;-91
2023/10/25 16:28:29;;;;;;;7.17;3.17;;;3.10;99.90;;;;;;2000325;70;25221;-90
2023/10/25 16:31:18;;;;;;;3.07;2.33;;;3.10;99.90;;;;;;2007683;70;25813;-90
2023/10/25 16:34:08;;;;;;;6.93;2.93;;;3.20;99.90;;;;;;2012813;70;25218;-90
2023/10/25 16:37:01;;;;;;;6.27;2.80;;;3.20;99.90;;;;;;2014769;70;25230;-90
2023/10/25 16:55:21;;;;;;;3.87;2.13;;;3.20;99.90;;;;;;1915755;73;26431;-88
2023/10/25 17:00:59;;;;;;;11.87;3.77;;;3.20;99.90;;;;;;1930592;72;27592;-90
2023/10/25 17:03:46;;;;;;;4.37;2.40;;;3.10;99.90;;;;;;1898478;73;25258;-90
2023/10/25 17:06:36;;;;;;;1.00;1.00;;;3.10;99.90;;;;;;1884667;75;25259;-90
2023/10/25 17:09:25;;;;;;;7.30;3.60;;;3.10;99.90;;;;;;1883984;75;25263;-90
2023/10/25 17:12:13;;;;;;;13.00;5.07;;;3.10;99.90;;;;;;1886843;75;25321;-90
2023/10/25 17:28:40;;;;;;;2.73;2.43;;;3.10;99.90;;;;;;1947277;72;27651;-90
2023/10/25 17:31:29;;;;;;;8.87;3.17;;;3.10;99.90;;;;;;1942390;73;25218;-92
2023/10/25 17:34:18;;;;;;;9.87;4.03;;;3.10;99.90;;;;;;1934774;73;25179;-90
2023/10/25 17:37:07;;;;;;;18.37;6.37;;;3.10;99.90;;;;;;1942788;73;25278;-90
2023/10/25 17:39:56;;;;;;;7.87;4.37;;;3.10;99.90;;;;;;1931057;73;25635;-90
2023/10/25 17:45:58;;;;;;;5.20;3.07;;;3.10;99.90;;;;;;2016902;70;27126;-90
2023/10/25 17:48:50;;;;;;;7.43;3.10;;;3.10;99.90;;;;;;1998368;70;25251;-90
2023/10/25 17:51:38;;;;;;;9.10;3.77;;;3.10;99.90;;;;;;2074097;67;25256;-90
2023/10/25 17:54:27;;;;;;;6.23;3.80;;;3.10;99.90;;;;;;2072578;68;25185;-90
2023/10/25 18:13:47;;;;;;;3.13;2.03;;;3.10;99.90;;;;;;1930535;73;26384;-88
2023/10/25 18:29:45;;;;;;;5.90;2.77;;;3.20;99.90;;;;;;1874374;75;27221;-88
2023/10/25 18:35:19;;;;;;;4.43;2.43;;;3.20;99.90;;;;;;1943579;72;27658;-90
2023/10/25 18:38:10;;;;;;;6.60;3.03;;;3.20;99.90;;;;;;1927851;73;25190;-89
2023/10/25 18:40:59;;;;;;;8.87;3.70;;;3.10;99.90;;;;;;1919537;73;25221;-90
2023/10/25 18:43:49;;;;;;;7.10;2.67;;;3.10;99.90;;;;;;1898587;74;25297;-89
2023/10/25 19:01:45;;;;;;;6.20;3.00;;;3.20;99.90;;;;;;1894775;75;28402;-89
2023/10/25 19:07:19;;;;;;;10.23;2.53;;;3.30;99.90;;;;;;1941202;72;27098;-90
2023/10/25 19:10:11;;;;;;;4.67;2.10;;;3.30;99.90;;;;;;1894240;74;25218;-90
2023/10/25 19:13:00;;;;;;;6.43;2.40;;;3.30;99.90;;;;;;1899734;73;25679;-90
2023/10/25 19:15:49;;;;;;;5.30;2.77;;;3.20;99.90;;;;;;1899391;73;25269;-90
2023/10/25 19:18:38;;;;;;;4.30;2.43;;;3.20;99.90;;;;;;1903417;74;25368;-89
2023/10/25 19:24:12;;;;;;;4.17;2.57;;;3.20;99.90;;;;;;1948611;72;26918;-90
2023/10/25 19:27:00;;;;;;;10.30;3.00;;;3.20;99.90;;;;;;1930385;73;25222;-90
2023/10/25 19:29:49;;;;;;;5.53;3.07;;;3.20;99.90;;;;;;1936800;73;25270;-90
2023/10/25 19:32:38;;;;;;;3.90;2.50;;;3.30;99.90;;;;;;1931375;73;25179;-90
2023/10/25 19:49:10;;;;;;;7.50;2.77;;;3.20;99.90;;;;;;1897967;74;27104;-88
2023/10/25 19:55:44;;;;;;;5.03;2.30;;;3.30;99.90;;;;;;1980830;71;26391;-90
2023/10/25 19:58:32;;;;;;;3.93;1.87;;;3.30;99.90;;;;;;2025864;69;26545;-90
2023/10/25 20:01:21;;;;;;;3.30;1.50;;;3.30;99.90;;;;;;2023749;69;25226;-89
2023/10/25 20:04:09;;;;;;;3.87;1.97;;;3.30;99.90;;;;;;2022442;69;25183;-90
2023/10/25 20:06:58;;;;;;;5.47;2.07;;;3.30;99.90;;;;;;2023597;69;26154;-90
2023/10/25 20:09:47;;;;;;;3.97;2.47;;;3.30;99.90;;;;;;2020882;69;25201;-90
2023/10/25 20:12:36;;;;;;;8.77;2.50;;;3.30;99.90;;;;;;2019314;70;25182;-90
2023/10/25 20:15:25;;;;;;;4.87;2.33;;;3.30;99.90;;;;;;2020923;69;25220;-88
2023/10/25 20:18:14;;;;;;;7.97;2.80;;;3.30;99.90;;;;;;2020943;69;25137;-89
2023/10/25 20:21:02;;;;;;;8.60;2.50;;;3.30;99.90;;;;;;2008504;69;25185;-89
2023/10/25 20:23:51;;;;;;;7.80;2.80;;;3.30;99.90;;;;;;2007524;70;25175;-90
2023/10/25 20:26:39;;;;;;;12.33;2.90;;;3.30;99.90;;;;;;2023400;69;25226;-90
2023/10/25 20:29:28;;;;;;;5.10;2.60;;;3.30;99.90;;;;;;2018514;69;25635;-90
2023/10/25 20:32:16;;;;;;;5.23;2.00;;;3.30;99.90;;;;;;2014661;69;25695;-90
2023/10/25 20:35:05;;;;;;;4.63;2.00;;;3.30;99.90;;;;;;2027344;69;25255;-89
2023/10/25 20:37:55;;;;;;;3.80;2.60;;;3.20;99.90;;;;;;2023824;69;25205;-90
2023/10/25 20:40:43;;;;;;;2.80;1.70;;;3.20;99.90;;;;;;2004934;69;25163;-90
2023/10/25 20:43:32;;;;;;;4.90;2.70;;;3.30;99.90;;;;;;1997202;69;25315;-90
2023/10/25 20:46:21;;;;;;;3.03;2.10;;;3.20;99.90;;;;;;1986542;70;25665;-90
2023/10/25 20:49:09;;;;;;;6.20;2.40;;;3.20;99.90;;;;;;1993521;70;25234;-90
2023/10/25 20:51:57;;;;;;;7.27;2.10;;;3.30;99.90;;;;;;1992930;71;25307;-90
2023/10/25 20:54:48;;;;;;;3.27;2.07;;;3.20;99.90;;;;;;1991746;70;25168;-90
2023/10/25 21:16:19;;;;;;;7.73;2.23;;;3.30;99.90;;;;;;1994049;71;28463;-90
2023/10/25 21:19:08;;;;;;;4.80;1.70;;;3.30;99.90;;;;;;1957504;72;25264;-89
2023/10/25 21:21:57;;;;;;;5.53;1.70;;;3.30;99.90;;;;;;2037362;69;25696;-90
2023/10/25 21:24:46;;;;;;;4.60;2.20;;;3.30;99.90;;;;;;2035457;69;25171;-89
2023/10/25 21:27:35;;;;;;;2.00;1.23;;;3.30;99.90;;;;;;2038369;69;25647;-90
2023/10/25 21:30:23;;;;;;;3.23;1.73;;;3.30;99.90;;;;;;2039235;69;25130;-89
2023/10/25 21:33:12;;;;;;;5.83;1.60;;;3.30;99.90;;;;;;2004971;70;25241;-89
2023/10/25 21:36:07;;;;;;;7.43;1.60;;;3.30;99.90;;;;;;2032137;69;25658;-89
2023/10/25 21:38:56;;;;;;;5.00;2.30;;;3.30;99.90;;;;;;2033776;69;25746;-89
2023/10/25 21:41:44;;;;;;;4.53;1.97;;;3.20;99.90;;;;;;2037098;69;25307;-90
2023/10/25 21:48:49;;;;;;;5.47;2.20;;;3.30;99.90;;;;;;1950156;71;26693;-90
2023/10/25 21:51:37;;;;;;;3.00;1.83;;;3.30;99.90;;;;;;2000317;71;25177;-90
2023/10/25 22:09:24;;;;;;;5.77;2.30;;;3.20;99.90;;;;;;1943192;73;27078;-88
2023/10/25 22:16:58;;;;;;;4.40;2.13;;;3.20;99.90;;;;;;1994007;70;27560;-90
2023/10/25 22:19:47;;;;;;;3.97;1.70;;;3.20;99.90;;;;;;2046368;69;25183;-90
2023/10/25 22:25:20;;;;;;;3.27;2.17;;;3.20;99.90;;;;;;1921862;72;27130;-89
2023/10/25 22:28:08;;;;;;;3.60;1.77;;;3.20;99.90;;;;;;1913553;74;25225;-89
2023/10/25 22:35:42;;;;;;;6.00;2.20;;;3.20;99.90;;;;;;1975333;71;26360;-90
2023/10/25 22:38:31;;;;;;;3.03;2.00;;;3.20;99.90;;;;;;1957502;72;25232;-90
2023/10/25 22:41:19;;;;;;;4.70;2.17;;;3.20;99.90;;;;;;2043848;69;25765;-90
2023/10/25 22:44:08;;;;;;;2.60;1.47;;;3.20;99.90;;;;;;2015408;70;25741;-89
2023/10/25 22:46:56;;;;;;;2.50;1.70;;;3.20;99.90;;;;;;2008818;70;25194;-90
2023/10/25 23:04:11;;;;;;;4.60;2.23;;;3.20;99.90;;;;;;1943133;72;27544;-90
2023/10/25 23:07:00;;;;;;;2.43;1.60;;;3.20;99.90;;;;;;1934549;72;25222;-90
2023/10/25 23:09:48;;;;;;;3.67;1.70;;;3.20;99.90;;;;;;1920871;72;25207;-90
2023/10/25 23:12:37;;;;;;;5.67;2.00;;;3.20;99.90;;;;;;1926686;73;25306;-90
2023/10/25 23:15:25;;;;;;;1.63;1.37;;;3.20;99.90;;;;;;1922312;72;25206;-89